Time;durP1;ratioP1;P1;durP2;ratioP2;P2;SDS_P1;SDS_P2;PMS_P1;PMS_P2;Temp;Humidity;BMP_temperature;BMP_pressure;BME280_temperature;BME280_humidity;BME280_pressure;Samples;Min_cycle;Max_cycle;Signal;HPM_P1;HPM_P2
2021/06/29 19:55:24;;;;;;;19.47;17.40;;;;;;;26.33;73.31;94812.63;5120002;27;20579;-82
2021/06/29 19:57:52;;;;;;;18.13;16.53;;;;;;;26.45;72.38;94809.97;5089379;28;20443;-82
2021/06/29 20:00:19;;;;;;;18.83;16.97;;;;;;;26.62;72.94;94816.34;5089415;28;20436;-83
2021/06/29 20:02:46;;;;;;;19.73;16.40;;;;;;;26.76;73.78;94806.19;5088979;28;20436;-82
2021/06/29 20:05:15;;;;;;;21.47;16.77;;;;;;;26.87;73.39;94805.38;5089233;28;20451;-82
2021/06/29 20:07:43;;;;;;;16.67;14.87;;;;;;;26.96;74.03;94809.38;5089418;28;20440;-83
2021/06/29 20:10:13;;;;;;;17.33;15.77;;;;;;;26.91;68.99;94808.44;5053380;28;21001;-82
2021/06/29 20:12:42;;;;;;;18.43;16.13;;;;;;;26.99;68.61;94814.31;5089329;28;20448;-83
2021/06/29 20:15:11;;;;;;;17.97;16.17;;;;;;;27.07;68.30;94816.66;5088868;28;20475;-86
2021/06/29 20:17:39;;;;;;;17.37;15.57;;;;;;;27.11;68.03;94817.81;5089131;28;20474;-83
2021/06/29 20:20:08;;;;;;;18.17;16.37;;;;;;;27.14;67.39;94825.44;5089278;28;20485;-83
2021/06/29 20:22:35;;;;;;;16.97;15.37;;;;;;;27.11;67.68;94817.81;5089377;28;20494;-85
2021/06/29 20:25:04;;;;;;;17.73;16.03;;;;;;;27.19;67.20;94815.84;5089224;28;20485;-84
2021/06/29 20:27:31;;;;;;;20.27;16.53;;;;;;;27.22;67.30;94815.38;5090518;28;20510;-87
2021/06/29 20:29:59;;;;;;;23.30;17.27;;;;;;;27.22;70.10;94815.38;5089099;28;20431;-85
2021/06/29 20:32:27;;;;;;;20.43;16.97;;;;;;;27.26;70.93;94811.16;5089562;28;20440;-84
2021/06/29 20:34:54;;;;;;;18.47;16.43;;;;;;;27.29;71.50;94816.06;5090209;28;20487;-88
2021/06/29 20:37:22;;;;;;;17.10;15.27;;;;;;;27.29;68.06;94810.69;5037699;28;20849;-85
2021/06/29 20:39:50;;;;;;;17.40;15.80;;;;;;;27.30;66.27;94818.53;5088863;28;20506;-78
2021/06/29 20:42:17;;;;;;;15.97;14.37;;;;;;;27.30;66.30;94818.53;5088400;28;20442;-78
2021/06/29 20:44:44;;;;;;;16.40;15.00;;;;;;;27.26;66.35;94817.38;5088073;28;20474;-78
2021/06/29 20:47:13;;;;;;;17.20;15.70;;;;;;;27.08;66.01;94830.94;5088185;28;20448;-78
2021/06/29 20:49:40;;;;;;;20.60;16.40;;;;;;;27.14;66.11;94830.81;5036310;28;21000;-79
2021/06/29 20:52:08;;;;;;;23.93;17.17;;;;;;;27.01;66.11;94831.06;5088269;28;20452;-79
2021/06/29 20:54:35;;;;;;;17.50;15.73;;;;;;;27.05;66.03;94832.22;5035486;28;20490;-79
2021/06/29 20:57:03;;;;;;;15.80;14.50;;;;;;;26.97;66.09;94835.25;5088058;28;20444;-79
2021/06/29 20:59:30;;;;;;;14.77;13.30;;;;;;;26.94;65.48;94833.03;5088232;28;20443;-79
2021/06/29 21:01:58;;;;;;;17.63;15.83;;;;;;;26.93;65.68;94831.38;5087758;28;20463;-78
2021/06/29 21:04:26;;;;;;;15.57;13.97;;;;;;;26.87;65.86;94834.97;5087652;28;20951;-78
2021/06/29 21:06:53;;;;;;;16.60;15.00;;;;;;;26.78;65.75;94828.31;5074088;28;20991;-78
2021/06/29 21:09:20;;;;;;;19.23;15.43;;;;;;;26.72;65.39;94827.38;5074518;28;20444;-80
2021/06/29 21:11:47;;;;;;;15.27;13.70;;;;;;;26.65;65.81;94823.97;5074225;28;20936;-79
2021/06/29 21:14:14;;;;;;;15.50;13.93;;;;;;;26.64;65.68;94818.81;5074048;28;20484;-79
2021/06/29 21:16:42;;;;;;;16.23;14.60;;;;;;;26.68;65.30;94823.50;5074358;28;20868;-78
2021/06/29 21:19:09;;;;;;;14.80;13.30;;;;;;;26.73;65.21;94826.31;5074322;28;20506;-79
2021/06/29 21:21:37;;;;;;;15.17;13.67;;;;;;;26.78;65.42;94825.63;5074003;28;20928;-79
2021/06/29 21:24:05;;;;;;;22.17;15.10;;;;;;;26.80;65.00;94831.59;5038751;28;20445;-78
2021/06/29 21:26:32;;;;;;;15.53;14.03;;;;;;;26.80;65.00;94831.59;5073995;28;20471;-78
2021/06/29 21:29:00;;;;;;;18.60;13.90;;;;;;;26.78;64.49;94828.31;5073977;28;20441;-79
2021/06/29 21:31:27;;;;;;;15.30;13.43;;;;;;;26.78;64.11;94829.13;5073939;28;20494;-78
2021/06/29 21:33:54;;;;;;;15.23;12.93;;;;;;;26.77;64.11;94827.50;5074079;28;20824;-78
2021/06/29 21:36:22;;;;;;;15.10;13.73;;;;;;;26.74;63.54;94825.25;5074087;28;20499;-79
2021/06/29 21:38:50;;;;;;;15.57;12.53;;;;;;;26.67;63.61;94829.94;5073836;28;20452;-79
2021/06/29 21:41:17;;;;;;;15.80;14.30;;;;;;;26.64;63.59;94826.88;5074020;28;20510;-78
2021/06/29 21:43:44;;;;;;;14.83;13.43;;;;;;;26.59;63.88;94826.75;5073733;28;20944;-79
2021/06/29 21:46:12;;;;;;;13.27;12.07;;;;;;;26.49;63.66;94825.44;5073619;28;20506;-79
2021/06/29 21:48:41;;;;;;;13.13;12.03;;;;;;;26.36;63.91;94822.13;5073896;28;20518;-79
2021/06/29 21:51:11;;;;;;;16.23;12.23;;;;;;;26.29;64.46;94822.19;5073998;28;20456;-79
2021/06/29 21:53:38;;;;;;;14.57;13.20;;;;;;;26.17;64.93;94813.25;5073157;28;20530;-79
2021/06/29 21:56:07;;;;;;;13.83;12.63;;;;;;;26.20;64.48;94827.06;5038123;28;20802;-79
2021/06/29 21:58:35;;;;;;;12.17;10.97;;;;;;;26.16;64.78;94825.06;5037968;28;20437;-79
2021/06/29 22:01:03;;;;;;;13.07;11.93;;;;;;;26.15;64.93;94828.81;5073364;28;20452;-79
2021/06/29 22:03:31;;;;;;;14.13;12.70;;;;;;;26.16;64.63;94828.56;5073337;28;20860;-79
2021/06/29 22:05:59;;;;;;;15.77;14.03;;;;;;;26.12;64.66;94826.56;5073368;28;20449;-78
2021/06/29 22:08:27;;;;;;;14.43;12.87;;;;;;;26.14;64.90;94832.53;5073217;28;20452;-79
2021/06/29 22:10:54;;;;;;;12.90;11.83;;;;;;;26.09;65.00;94822.47;5073220;28;20441;-79
2021/06/29 22:13:23;;;;;;;12.93;11.77;;;;;;;26.15;64.83;94823.44;5021343;28;20841;-78
2021/06/29 22:15:52;;;;;;;14.37;12.97;;;;;;;26.08;64.74;94825.38;5073412;28;21023;-78
2021/06/29 22:18:19;;;;;;;13.50;12.33;;;;;;;26.06;64.83;94819.41;5072361;28;20456;-78
2021/06/29 22:20:46;;;;;;;17.63;13.70;;;;;;;26.06;65.19;94822.94;5073281;28;20574;-78
2021/06/29 22:23:14;;;;;;;13.07;11.77;;;;;;;26.04;65.11;94821.53;5073057;28;20469;-78
2021/06/29 22:25:41;;;;;;;13.53;12.10;;;;;;;25.91;65.02;94820.63;5073286;28;20457;-81
2021/06/29 22:28:09;;;;;;;13.80;12.50;;;;;;;25.93;65.01;94815.84;5073006;28;20510;-78
2021/06/29 22:30:38;;;;;;;14.27;12.97;;;;;;;25.81;65.22;94814.97;5072673;28;20936;-78
2021/06/29 22:33:05;;;;;;;11.90;10.90;;;;;;;25.80;65.40;94816.03;5072931;28;20484;-78
2021/06/29 22:35:35;;;;;;;12.43;11.20;;;;;;;25.71;65.69;94809.28;5072577;28;20472;-78
2021/06/29 22:38:03;;;;;;;12.47;11.33;;;;;;;25.72;65.89;94815.50;5072643;28;20970;-79
2021/06/29 22:40:30;;;;;;;18.50;11.97;;;;;;;25.71;66.39;94816.53;5020474;28;20461;-79
2021/06/29 22:42:57;;;;;;;13.70;12.20;;;;;;;25.66;66.19;94811.81;5037402;28;20997;-78
2021/06/29 22:45:25;;;;;;;15.77;11.00;;;;;;;25.64;66.00;94808.53;5072568;28;20448;-80
2021/06/29 22:47:54;;;;;;;15.40;11.30;;;;;;;25.61;66.36;94809.81;5072504;28;20806;-81
2021/06/29 22:50:21;;;;;;;14.57;11.20;;;;;;;25.58;66.42;94809.44;5072606;28;20812;-80
2021/06/29 22:52:48;;;;;;;12.07;11.03;;;;;;;25.57;66.63;94813.16;5072190;28;20444;-80
2021/06/29 22:55:16;;;;;;;14.70;11.77;;;;;;;25.58;66.57;94801.38;5072060;28;20495;-79
2021/06/29 22:57:44;;;;;;;14.17;12.77;;;;;;;25.58;66.56;94804.88;5072528;28;20502;-80
2021/06/29 23:00:13;;;;;;;12.13;10.90;;;;;;;25.56;66.68;94806.97;5072413;28;20498;-80
2021/06/29 23:02:40;;;;;;;15.63;11.97;;;;;;;25.62;66.05;94816.81;5072313;28;20436;-80
2021/06/29 23:05:10;;;;;;;13.47;12.27;;;;;;;25.71;66.08;94825.41;5072033;28;20510;-80
2021/06/29 23:07:38;;;;;;;12.93;11.83;;;;;;;25.70;66.43;94818.41;5020520;28;20476;-80
2021/06/29 23:10:06;;;;;;;19.40;11.20;;;;;;;25.74;66.66;94818.81;5071999;28;20537;-80
2021/06/29 23:12:34;;;;;;;13.57;12.13;;;;;;;25.71;66.18;94809.28;5071925;28;20498;-80
2021/06/29 23:15:01;;;;;;;14.80;11.90;;;;;;;25.76;66.34;94814.84;5071979;28;20895;-80
2021/06/29 23:17:28;;;;;;;13.30;12.00;;;;;;;25.73;66.70;94812.56;5071839;28;20847;-80
2021/06/29 23:19:55;;;;;;;13.23;11.93;;;;;;;25.75;66.43;94815.88;5072042;28;20807;-80
2021/06/29 23:22:24;;;;;;;13.00;11.90;;;;;;;25.76;66.67;94814.84;5072145;28;20441;-80
2021/06/29 23:24:51;;;;;;;13.30;12.13;;;;;;;25.70;66.26;94815.72;5071797;28;20445;-79
2021/06/29 23:27:18;;;;;;;13.50;11.90;;;;;;;25.66;66.51;94814.50;5072419;28;20492;-80
2021/06/29 23:29:45;;;;;;;14.50;11.47;;;;;;;25.64;66.69;94813.91;5071782;28;20514;-80
2021/06/29 23:32:12;;;;;;;11.77;10.60;;;;;;;25.58;67.39;94809.44;5072172;28;20510;-80
2021/06/29 23:34:39;;;;;;;13.57;12.13;;;;;;;25.55;67.21;94818.75;5071928;28;21001;-80
2021/06/29 23:37:06;;;;;;;13.67;12.37;;;;;;;25.54;67.31;94814.44;5019775;28;20777;-80
2021/06/29 23:39:40;;;;;;;12.80;11.60;;;;;;;25.53;67.61;94806.59;5071731;28;20936;-80
2021/06/29 23:42:07;;;;;;;13.70;12.43;;;;;;;25.50;67.79;94818.63;5072070;28;20486;-80
2021/06/29 23:44:34;;;;;;;12.63;11.33;;;;;;;25.53;67.72;94814.66;5071599;28;20448;-80
2021/06/29 23:47:01;;;;;;;14.57;12.70;;;;;;;25.52;67.84;94815.72;5071774;28;20944;-80
2021/06/29 23:49:28;;;;;;;14.37;12.50;;;;;;;25.53;68.03;94820.03;5071560;28;20448;-80
2021/06/29 23:51:55;;;;;;;16.43;12.87;;;;;;;25.53;68.13;94811.97;5071521;28;20448;-79
2021/06/29 23:54:22;;;;;;;13.63;11.47;;;;;;;25.48;68.38;94811.84;5071744;28;20807;-80
2021/06/29 23:56:51;;;;;;;14.43;13.00;;;;;;;25.34;68.59;94803.09;5071480;28;20445;-79
2021/06/29 23:59:18;;;;;;;14.67;13.03;;;;;;;25.31;69.06;94806.22;5071355;28;20429;-79
